createdAt,value
2023-04-09T00:02:15.635Z,10.30
2023-04-09T00:07:17.162Z,8.52
2023-04-09T00:12:18.715Z,9.80
2023-04-09T00:17:20.318Z,10.07
2023-04-09T00:22:21.875Z,11.90
2023-04-09T00:27:23.432Z,10.48
2023-04-09T00:32:24.979Z,10.00
2023-04-09T00:37:26.512Z,10.40
2023-04-09T00:42:32.188Z,10.45
2023-04-09T00:47:34.975Z,10.43
2023-04-09T00:52:36.661Z,12.95
2023-04-09T00:57:38.234Z,10.55
2023-04-09T01:02:41.327Z,9.48
2023-04-09T01:08:04.410Z,9.45
2023-04-09T01:13:16.167Z,9.77
2023-04-09T01:18:29.444Z,11.55
2023-04-09T01:23:54.703Z,10.35
2023-04-09T01:28:57.698Z,10.65
2023-04-09T01:34:00.664Z,10.05
2023-04-09T01:39:03.196Z,9.82
2023-04-09T01:44:06.292Z,12.48
2023-04-09T01:49:09.353Z,12.38
2023-04-09T01:54:10.995Z,11.88
2023-04-09T01:59:13.343Z,12.27
2023-04-09T02:04:21.691Z,12.70
2023-04-09T02:09:24.549Z,12.63
2023-04-09T02:14:28.401Z,11.95
2023-04-09T02:19:44.593Z,12.43
2023-04-09T02:24:46.921Z,13.52
2023-04-09T02:29:48.503Z,14.18
2023-04-09T02:34:50.213Z,14.25
2023-04-09T02:39:51.719Z,12.50
2023-04-09T02:44:53.447Z,14.23
2023-04-09T02:49:55.006Z,14.95
2023-04-09T02:54:56.997Z,13.10
2023-04-09T02:59:58.516Z,15.48
2023-04-09T03:05:00.068Z,16.23
2023-04-09T03:10:01.579Z,13.48
2023-04-09T03:15:04.574Z,14.80
2023-04-09T03:20:09.480Z,15.77
2023-04-09T03:25:13.305Z,17.58
2023-04-09T03:30:15.208Z,15.65
2023-04-09T03:35:19.569Z,16.85
2023-04-09T03:40:21.652Z,18.08
2023-04-09T03:45:23.305Z,17.90
2023-04-09T03:50:27.221Z,15.93
2023-04-09T03:55:31.406Z,16.98
2023-04-09T04:00:36.739Z,17.85
2023-04-09T04:06:11.877Z,16.52
2023-04-09T04:11:28.164Z,18.15
2023-04-09T04:16:30.552Z,16.10
2023-04-09T04:21:32.336Z,20.42
2023-04-09T04:26:36.583Z,21.30
2023-04-09T04:31:38.520Z,17.73
2023-04-09T04:36:40.252Z,17.20
2023-04-09T04:41:42.868Z,17.27
2023-04-09T04:46:49.933Z,16.65
2023-04-09T04:51:51.493Z,19.25
2023-04-09T04:56:53.539Z,18.08
2023-04-09T05:02:27.516Z,17.33
2023-04-09T05:07:49.132Z,17.02
2023-04-09T05:12:50.981Z,16.77
2023-04-09T05:18:02.828Z,17.80
2023-04-09T05:23:04.885Z,23.17
2023-04-09T05:28:12.020Z,20.42
2023-04-09T05:33:15.367Z,20.08
2023-04-09T05:38:17.069Z,18.23
2023-04-09T05:43:22.554Z,17.58
2023-04-09T05:48:24.398Z,17.40
2023-04-09T05:53:27.645Z,17.38
2023-04-09T05:58:29.565Z,15.90
2023-04-09T06:03:32.829Z,21.42
2023-04-09T06:08:34.716Z,18.55
2023-04-09T06:13:36.288Z,16.83
2023-04-09T06:18:37.940Z,17.85
2023-04-09T06:23:40.283Z,18.23
2023-04-09T06:28:42.462Z,15.45
2023-04-09T06:33:43.998Z,15.23
2023-04-09T06:38:45.615Z,15.27
2023-04-09T06:43:47.159Z,15.15
2023-04-09T06:48:48.759Z,15.50
2023-04-09T06:53:50.491Z,13.10
2023-04-09T06:58:52.166Z,13.95
2023-04-09T07:03:54.046Z,15.88
2023-04-09T07:08:56.176Z,14.40
2023-04-09T07:13:58.217Z,15.50
2023-04-09T07:18:59.864Z,16.42
2023-04-09T07:24:02.093Z,15.40
2023-04-09T07:29:04.429Z,14.23
2023-04-09T07:34:06.319Z,14.23
2023-04-09T07:39:07.859Z,12.75
2023-04-09T07:44:12.219Z,12.05
2023-04-09T07:49:13.942Z,12.65
2023-04-09T07:54:15.523Z,15.73
2023-04-09T07:59:17.264Z,15.82
2023-04-09T08:04:18.989Z,17.52
2023-04-09T08:09:21.524Z,20.08
2023-04-09T08:14:23.115Z,15.27
2023-04-09T08:19:24.794Z,16.27
2023-04-09T08:24:26.632Z,16.73
2023-04-09T08:29:28.426Z,16.98
2023-04-09T08:34:29.954Z,14.95
2023-04-09T08:39:31.918Z,13.82
2023-04-09T08:44:33.551Z,14.35
2023-04-09T08:49:35.210Z,14.68
2023-04-09T08:54:42.109Z,12.13
2023-04-09T08:59:43.643Z,10.70
2023-04-09T09:04:49.458Z,9.27
2023-04-09T09:09:54.801Z,8.73
2023-04-09T09:14:56.390Z,7.82
2023-04-09T09:19:59.045Z,10.95
2023-04-09T09:25:01.029Z,8.57
2023-04-09T09:30:05.616Z,7.25
2023-04-09T09:35:07.702Z,5.85
2023-04-09T09:40:09.949Z,5.60
2023-04-09T09:45:18.267Z,7.50
2023-04-09T09:50:25.467Z,7.43
2023-04-09T09:55:30.906Z,6.90
2023-04-09T10:00:33.074Z,7.03
2023-04-09T10:05:39.057Z,8.07
2023-04-09T10:10:44.545Z,8.50
2023-04-09T10:15:46.826Z,8.65
2023-04-09T10:21:01.693Z,8.35
2023-04-09T10:26:04.318Z,8.57
2023-04-09T10:31:07.894Z,6.35
2023-04-09T10:36:13.362Z,6.50
2023-04-09T10:41:21.562Z,8.20
2023-04-09T10:46:30.611Z,5.95
2023-04-09T10:51:36.597Z,5.93
2023-04-09T10:56:38.174Z,8.35
2023-04-09T11:01:39.736Z,5.85
2023-04-09T11:06:46.193Z,7.00
2023-04-09T11:11:53.498Z,6.30
2023-04-09T11:16:55.636Z,5.72
2023-04-09T11:21:57.170Z,7.50
2023-04-09T11:27:02.111Z,7.43
2023-04-09T11:32:07.516Z,6.82
2023-04-09T11:37:14.519Z,7.50
2023-04-09T11:42:16.047Z,5.20
2023-04-09T11:47:18.169Z,6.03
2023-04-09T11:52:19.790Z,5.32
2023-04-09T11:57:21.400Z,5.50
2023-04-09T12:02:23.480Z,4.25
2023-04-09T12:07:32.493Z,4.88
2023-04-09T12:12:45.458Z,4.65
2023-04-09T12:17:49.416Z,4.40
2023-04-09T12:22:51.029Z,4.75
2023-04-09T12:27:52.750Z,6.22
2023-04-09T12:32:55.160Z,5.30
2023-04-09T12:37:56.771Z,4.93
2023-04-09T12:42:58.292Z,4.45
2023-04-09T12:47:59.938Z,4.50
2023-04-09T12:53:01.493Z,5.60
2023-04-09T12:58:03.072Z,5.93
2023-04-09T13:03:04.989Z,4.30
2023-04-09T13:08:06.779Z,4.22
2023-04-09T13:13:12.157Z,4.80
2023-04-09T13:18:13.798Z,5.28
2023-04-09T13:23:15.516Z,4.70
2023-04-09T13:28:17.070Z,5.40
2023-04-09T13:33:18.610Z,8.43
2023-04-09T13:38:20.246Z,6.97
2023-04-09T13:43:21.868Z,5.78
2023-04-09T13:48:24.307Z,5.03
2023-04-09T13:53:26.090Z,5.13
2023-04-09T13:58:27.614Z,4.50
2023-04-09T14:03:29.181Z,4.90
2023-04-09T14:08:30.899Z,4.30
2023-04-09T14:13:32.481Z,5.50
2023-04-09T14:18:34.198Z,5.88
2023-04-09T14:23:35.873Z,4.30
2023-04-09T14:28:37.988Z,4.15
2023-04-09T14:33:40.281Z,3.95
2023-04-09T14:38:41.803Z,4.78
2023-04-09T14:43:43.342Z,4.40
2023-04-09T14:48:44.849Z,4.90
2023-04-09T14:53:46.489Z,5.47
2023-04-09T14:58:48.039Z,4.35
2023-04-09T15:03:49.661Z,4.78
2023-04-09T15:08:51.521Z,4.13
2023-04-09T15:13:53.303Z,5.50
2023-04-09T15:18:57.631Z,5.22
2023-04-09T15:23:59.209Z,7.65
2023-04-09T15:29:05.385Z,5.00
2023-04-09T15:34:07.099Z,4.68
2023-04-09T15:39:08.618Z,4.22
2023-04-09T15:44:10.608Z,4.93
2023-04-09T15:49:12.151Z,4.80
2023-04-09T15:54:13.782Z,5.05
2023-04-09T15:59:16.398Z,4.55
2023-04-09T16:04:18.007Z,4.25
2023-04-09T16:09:19.546Z,4.53
2023-04-09T16:14:21.556Z,4.53
2023-04-09T16:19:25.032Z,4.07
2023-04-09T16:24:27.127Z,3.90
2023-04-09T16:29:28.886Z,5.28
2023-04-09T16:34:31.962Z,5.32
2023-04-09T16:39:33.511Z,5.57
2023-04-09T16:44:35.709Z,5.18
2023-04-09T16:49:37.361Z,5.00
2023-04-09T16:54:38.898Z,7.63
2023-04-09T16:59:42.503Z,6.55
2023-04-09T17:04:44.050Z,4.97
2023-04-09T17:09:45.673Z,5.30
2023-04-09T17:14:47.204Z,4.38
2023-04-09T17:19:48.931Z,5.20
2023-04-09T17:24:50.581Z,4.20
2023-04-09T17:29:53.718Z,4.97
2023-04-09T17:34:55.478Z,5.75
2023-04-09T17:39:57.093Z,4.65
2023-04-09T17:44:59.118Z,4.20
2023-04-09T17:50:01.547Z,5.25
2023-04-09T17:55:14.057Z,7.55
2023-04-09T18:00:16.120Z,5.72
2023-04-09T18:05:21.032Z,6.03
2023-04-09T18:10:23.395Z,5.50
2023-04-09T18:15:24.953Z,6.63
2023-04-09T18:20:26.576Z,6.32
2023-04-09T18:25:28.729Z,5.88
2023-04-09T18:30:31.171Z,4.57
2023-04-09T18:35:32.744Z,5.95
2023-04-09T18:40:41.286Z,4.95
2023-04-09T18:45:42.917Z,6.05
2023-04-09T18:50:44.452Z,5.43
2023-04-09T18:55:46.465Z,5.80
2023-04-09T19:00:51.470Z,5.82
2023-04-09T19:05:53.131Z,7.88
2023-04-09T19:10:55.592Z,6.00
2023-04-09T19:15:57.194Z,6.05
2023-04-09T19:20:58.927Z,5.13
2023-04-09T19:26:00.954Z,6.60
2023-04-09T19:31:06.400Z,6.07
2023-04-09T19:36:08.270Z,6.50
2023-04-09T19:41:10.482Z,7.70
2023-04-09T19:46:13.159Z,5.25
2023-04-09T19:51:21.951Z,6.00
2023-04-09T19:56:23.558Z,5.53
2023-04-09T20:01:25.194Z,6.00
2023-04-09T20:06:27.159Z,10.40
2023-04-09T20:11:28.727Z,9.18
2023-04-09T20:16:30.442Z,10.00
2023-04-09T20:21:32.006Z,7.18
2023-04-09T20:26:33.504Z,7.22
2023-04-09T20:31:36.110Z,7.80
2023-04-09T20:36:37.983Z,7.85
2023-04-09T20:41:39.493Z,7.72
2023-04-09T20:46:41.014Z,8.88
2023-04-09T20:51:42.596Z,9.45
2023-04-09T20:56:44.619Z,8.25
2023-04-09T21:01:46.191Z,7.28
2023-04-09T21:06:47.843Z,7.25
2023-04-09T21:11:49.455Z,7.00
2023-04-09T21:16:52.345Z,5.93
2023-04-09T21:21:54.341Z,10.15
2023-04-09T21:26:56.077Z,8.07
2023-04-09T21:31:57.594Z,8.77
2023-04-09T21:36:59.189Z,7.70
2023-04-09T21:42:00.728Z,7.88
2023-04-09T21:47:07.430Z,7.95
2023-04-09T21:52:14.525Z,8.70
2023-04-09T21:57:16.470Z,11.02
2023-04-09T22:02:18.534Z,13.00
2023-04-09T22:07:20.382Z,10.68
2023-04-09T22:12:21.895Z,8.35
2023-04-09T22:17:23.462Z,10.05
2023-04-09T22:22:25.001Z,9.50
2023-04-09T22:27:26.795Z,9.25
2023-04-09T22:32:28.845Z,9.38
2023-04-09T22:37:30.789Z,10.13
2023-04-09T22:42:33.049Z,8.85
2023-04-09T22:47:34.962Z,10.52
2023-04-09T22:52:36.602Z,10.85
2023-04-09T22:57:38.445Z,10.00
2023-04-09T23:02:40.209Z,10.93
2023-04-09T23:07:42.745Z,9.85
2023-04-09T23:12:44.321Z,12.55
2023-04-09T23:17:45.893Z,12.80
2023-04-09T23:22:48.018Z,11.23
2023-04-09T23:27:49.703Z,13.85
2023-04-09T23:32:57.032Z,10.65
2023-04-09T23:37:59.196Z,11.75
2023-04-09T23:43:00.748Z,11.63
2023-04-09T23:48:03.636Z,11.30
2023-04-09T23:53:05.446Z,11.30
2023-04-09T23:58:07.678Z,11.40
